sensor_id;sensor_type;location;lat;lon;timestamp;pressure;altitude;pressure_sealevel;temperature;humidity
1926;BME280;964;42.606;23.588;2023-04-01T00:00:49;93667.53;;;31.43;21.57
1926;BME280;964;42.606;23.588;2023-04-01T00:03:17;93661.00;;;31.57;21.55
1926;BME280;964;42.606;23.588;2023-04-01T00:05:44;93655.66;;;31.24;21.94
1926;BME280;964;42.606;23.588;2023-04-01T00:08:11;93652.59;;;30.31;22.72
1926;BME280;964;42.606;23.588;2023-04-01T00:10:39;93653.97;;;31.10;22.16
1926;BME280;964;42.606;23.588;2023-04-01T00:13:06;93645.88;;;30.54;22.31
1926;BME280;964;42.606;23.588;2023-04-01T00:15:33;93647.63;;;30.07;22.71
1926;BME280;964;42.606;23.588;2023-04-01T00:18:00;93644.63;;;30.61;22.55
1926;BME280;964;42.606;23.588;2023-04-01T00:20:27;93646.88;;;30.18;22.97
1926;BME280;964;42.606;23.588;2023-04-01T00:22:54;93649.31;;;29.72;23.47
1926;BME280;964;42.606;23.588;2023-04-01T00:25:21;93654.81;;;30.49;22.59
1926;BME280;964;42.606;23.588;2023-04-01T00:27:50;93658.75;;;30.93;22.40
1926;BME280;964;42.606;23.588;2023-04-01T00:30:17;93651.91;;;31.27;21.61
1926;BME280;964;42.606;23.588;2023-04-01T00:32:44;93651.16;;;31.32;22.16
1926;BME280;964;42.606;23.588;2023-04-01T00:35:11;93644.72;;;31.24;21.86
1926;BME280;964;42.606;23.588;2023-04-01T00:37:38;93649.63;;;30.51;22.85
1926;BME280;964;42.606;23.588;2023-04-01T00:40:07;93648.88;;;30.56;22.26
1926;BME280;964;42.606;23.588;2023-04-01T00:42:34;93645.28;;;30.95;22.19
1926;BME280;964;42.606;23.588;2023-04-01T00:45:25;93644.28;;;29.42;23.50
1926;BME280;964;42.606;23.588;2023-04-01T00:47:52;93644.38;;;30.64;22.87
1926;BME280;964;42.606;23.588;2023-04-01T00:50:19;93640.91;;;30.03;23.10
1926;BME280;964;42.606;23.588;2023-04-01T00:52:47;93632.97;;;29.94;23.22
1926;BME280;964;42.606;23.588;2023-04-01T00:55:14;93630.09;;;28.73;24.57
1926;BME280;964;42.606;23.588;2023-04-01T00:57:43;93614.56;;;29.72;23.99
1926;BME280;964;42.606;23.588;2023-04-01T01:00:12;93615.28;;;29.50;23.53
1926;BME280;964;42.606;23.588;2023-04-01T01:02:44;93619.34;;;29.07;24.26
1926;BME280;964;42.606;23.588;2023-04-01T01:05:12;93612.31;;;29.70;23.54
1926;BME280;964;42.606;23.588;2023-04-01T01:07:46;93616.25;;;29.53;23.64
1926;BME280;964;42.606;23.588;2023-04-01T01:10:19;93613.88;;;29.07;24.07
1926;BME280;964;42.606;23.588;2023-04-01T01:12:57;93614.44;;;28.68;24.42
1926;BME280;964;42.606;23.588;2023-04-01T01:15:31;93615.09;;;29.93;23.36
1926;BME280;964;42.606;23.588;2023-04-01T01:18:05;93614.06;;;30.29;22.69
1926;BME280;964;42.606;23.588;2023-04-01T01:26:46;93598.91;;;29.73;22.73
1926;BME280;964;42.606;23.588;2023-04-01T01:32:49;93584.22;;;30.53;22.13
1926;BME280;964;42.606;23.588;2023-04-01T01:35:26;93577.28;;;29.63;22.72
1926;BME280;964;42.606;23.588;2023-04-01T01:37:56;93584.59;;;29.02;23.54
1926;BME280;964;42.606;23.588;2023-04-01T01:40:26;93576.59;;;30.07;22.89
1926;BME280;964;42.606;23.588;2023-04-01T01:42:56;93576.31;;;30.22;22.37
1926;BME280;964;42.606;23.588;2023-04-01T01:45:26;93576.34;;;29.89;22.85
1926;BME280;964;42.606;23.588;2023-04-01T01:47:54;93572.59;;;28.83;23.71
1926;BME280;964;42.606;23.588;2023-04-01T01:50:25;93561.88;;;29.44;23.14
1926;BME280;964;42.606;23.588;2023-04-01T01:53:00;93561.66;;;29.69;22.77
1926;BME280;964;42.606;23.588;2023-04-01T01:55:29;93546.03;;;30.09;22.57
1926;BME280;964;42.606;23.588;2023-04-01T01:57:59;93555.44;;;29.63;23.04
1926;BME280;964;42.606;23.588;2023-04-01T02:00:28;93545.69;;;29.18;23.61
1926;BME280;964;42.606;23.588;2023-04-01T02:02:56;93540.41;;;28.87;23.61
1926;BME280;964;42.606;23.588;2023-04-01T02:05:26;93538.06;;;29.55;22.87
1926;BME280;964;42.606;23.588;2023-04-01T02:07:59;93540.91;;;28.91;24.07
1926;BME280;964;42.606;23.588;2023-04-01T02:10:28;93522.44;;;30.00;22.80
1926;BME280;964;42.606;23.588;2023-04-01T02:12:59;93519.97;;;28.65;23.41
1926;BME280;964;42.606;23.588;2023-04-01T02:15:31;93517.41;;;28.45;23.54
1926;BME280;964;42.606;23.588;2023-04-01T02:18:00;93527.06;;;29.22;23.32
1926;BME280;964;42.606;23.588;2023-04-01T02:20:29;93512.94;;;30.29;22.07
1926;BME280;964;42.606;23.588;2023-04-01T02:22:57;93512.25;;;29.67;22.61
1926;BME280;964;42.606;23.588;2023-04-01T02:25:27;93517.38;;;30.49;21.95
1926;BME280;964;42.606;23.588;2023-04-01T02:27:57;93510.53;;;29.87;22.32
1926;BME280;964;42.606;23.588;2023-04-01T02:30:27;93510.44;;;30.42;22.11
1926;BME280;964;42.606;23.588;2023-04-01T02:32:55;93514.47;;;29.30;22.57
1926;BME280;964;42.606;23.588;2023-04-01T02:35:23;93505.78;;;30.04;22.01
1926;BME280;964;42.606;23.588;2023-04-01T02:37:52;93495.59;;;30.79;21.73
1926;BME280;964;42.606;23.588;2023-04-01T02:40:20;93495.28;;;30.93;21.39
1926;BME280;964;42.606;23.588;2023-04-01T02:42:47;93496.06;;;30.88;21.79
1926;BME280;964;42.606;23.588;2023-04-01T02:45:14;93499.69;;;31.13;21.34
1926;BME280;964;42.606;23.588;2023-04-01T02:47:40;93491.47;;;31.13;21.29
1926;BME280;964;42.606;23.588;2023-04-01T02:50:08;93483.59;;;31.04;21.90
1926;BME280;964;42.606;23.588;2023-04-01T02:52:35;93493.13;;;30.81;21.44
1926;BME280;964;42.606;23.588;2023-04-01T02:55:06;93492.97;;;31.14;21.23
1926;BME280;964;42.606;23.588;2023-04-01T02:57:33;93502.75;;;31.04;21.18
1926;BME280;964;42.606;23.588;2023-04-01T03:00:00;93518.16;;;30.27;22.09
1926;BME280;964;42.606;23.588;2023-04-01T03:02:27;93508.75;;;30.86;21.58
1926;BME280;964;42.606;23.588;2023-04-01T03:04:53;93514.25;;;29.73;22.68
1926;BME280;964;42.606;23.588;2023-04-01T03:07:20;93531.13;;;29.65;22.72
1926;BME280;964;42.606;23.588;2023-04-01T03:09:47;93530.88;;;29.97;22.40
1926;BME280;964;42.606;23.588;2023-04-01T03:12:15;93538.56;;;30.15;22.47
1926;BME280;964;42.606;23.588;2023-04-01T03:14:41;93533.09;;;30.15;22.29
1926;BME280;964;42.606;23.588;2023-04-01T03:17:08;93542.53;;;29.81;22.54
1926;BME280;964;42.606;23.588;2023-04-01T03:19:35;93537.09;;;30.03;22.36
1926;BME280;964;42.606;23.588;2023-04-01T03:22:02;93530.81;;;30.47;22.06
1926;BME280;964;42.606;23.588;2023-04-01T03:24:28;93529.56;;;30.31;22.13
1926;BME280;964;42.606;23.588;2023-04-01T03:26:55;93525.97;;;30.81;21.92
1926;BME280;964;42.606;23.588;2023-04-01T03:29:23;93534.09;;;30.23;22.35
1926;BME280;964;42.606;23.588;2023-04-01T03:31:50;93535.75;;;30.54;22.27
1926;BME280;964;42.606;23.588;2023-04-01T03:34:16;93520.53;;;30.70;22.20
1926;BME280;964;42.606;23.588;2023-04-01T03:36:43;93530.75;;;30.58;21.84
1926;BME280;964;42.606;23.588;2023-04-01T03:39:10;93537.09;;;30.03;22.62
1926;BME280;964;42.606;23.588;2023-04-01T03:41:37;93541.81;;;29.86;22.88
1926;BME280;964;42.606;23.588;2023-04-01T03:44:04;93543.31;;;29.87;22.71
1926;BME280;964;42.606;23.588;2023-04-01T03:46:32;93542.03;;;30.10;22.53
1926;BME280;964;42.606;23.588;2023-04-01T03:48:58;93532.09;;;30.24;22.43
1926;BME280;964;42.606;23.588;2023-04-01T03:51:25;93545.28;;;30.03;22.43
1926;BME280;964;42.606;23.588;2023-04-01T03:53:51;93539.81;;;30.14;22.52
1926;BME280;964;42.606;23.588;2023-04-01T03:56:18;93546.19;;;30.50;22.21
1926;BME280;964;42.606;23.588;2023-04-01T03:58:45;93553.75;;;29.94;22.98
1926;BME280;964;42.606;23.588;2023-04-01T04:01:16;93555.19;;;30.45;22.58
1926;BME280;964;42.606;23.588;2023-04-01T04:03:45;93542.09;;;30.84;21.97
1926;BME280;964;42.606;23.588;2023-04-01T04:06:12;93543.81;;;30.93;21.95
1926;BME280;964;42.606;23.588;2023-04-01T04:08:40;93546.91;;;30.61;22.44
1926;BME280;964;42.606;23.588;2023-04-01T04:11:07;93528.28;;;31.18;22.05
1926;BME280;964;42.606;23.588;2023-04-01T04:13:34;93517.69;;;31.38;22.13
1926;BME280;964;42.606;23.588;2023-04-01T04:16:01;93503.31;;;31.32;21.82
1926;BME280;964;42.606;23.588;2023-04-01T04:18:28;93487.59;;;30.92;22.37
1926;BME280;964;42.606;23.588;2023-04-01T04:20:56;93483.41;;;29.00;23.99
1926;BME280;964;42.606;23.588;2023-04-01T04:23:23;93479.38;;;30.34;23.06
1926;BME280;964;42.606;23.588;2023-04-01T04:25:54;93473.44;;;30.30;22.75
1926;BME280;964;42.606;23.588;2023-04-01T04:28:21;93471.84;;;30.62;22.88
1926;BME280;964;42.606;23.588;2023-04-01T04:30:47;93468.69;;;30.36;22.78
1926;BME280;964;42.606;23.588;2023-04-01T04:33:14;93476.16;;;28.21;24.95
1926;BME280;964;42.606;23.588;2023-04-01T04:35:41;93475.03;;;28.02;24.95
1926;BME280;964;42.606;23.588;2023-04-01T04:38:09;93464.66;;;28.06;24.77
1926;BME280;964;42.606;23.588;2023-04-01T04:40:36;93445.25;;;28.30;24.71
1926;BME280;964;42.606;23.588;2023-04-01T04:43:03;93439.06;;;29.38;23.69
1926;BME280;964;42.606;23.588;2023-04-01T04:45:29;93444.50;;;29.10;23.83
1926;BME280;964;42.606;23.588;2023-04-01T04:47:56;93432.03;;;28.93;23.36
1926;BME280;964;42.606;23.588;2023-04-01T04:50:24;93423.19;;;28.22;24.39
1926;BME280;964;42.606;23.588;2023-04-01T04:52:51;93412.72;;;29.18;23.75
1926;BME280;964;42.606;23.588;2023-04-01T04:55:19;93408.78;;;29.31;23.06
1926;BME280;964;42.606;23.588;2023-04-01T04:57:46;93392.81;;;29.74;22.63
1926;BME280;964;42.606;23.588;2023-04-01T05:00:13;93393.13;;;29.48;22.86
1926;BME280;964;42.606;23.588;2023-04-01T05:02:40;93377.28;;;30.21;22.29
1926;BME280;964;42.606;23.588;2023-04-01T05:05:07;93370.72;;;30.87;21.39
1926;BME280;964;42.606;23.588;2023-04-01T05:07:34;93391.38;;;29.61;22.57
1926;BME280;964;42.606;23.588;2023-04-01T05:10:00;93387.34;;;30.53;22.00
1926;BME280;964;42.606;23.588;2023-04-01T05:12:28;93376.34;;;30.64;22.08
1926;BME280;964;42.606;23.588;2023-04-01T05:14:56;93376.66;;;30.91;21.46
1926;BME280;964;42.606;23.588;2023-04-01T05:17:22;93358.22;;;31.56;20.90
1926;BME280;964;42.606;23.588;2023-04-01T05:19:49;93360.13;;;30.72;21.67
1926;BME280;964;42.606;23.588;2023-04-01T05:22:16;93351.19;;;30.72;21.73
1926;BME280;964;42.606;23.588;2023-04-01T05:24:42;93351.56;;;30.51;20.70
1926;BME280;964;42.606;23.588;2023-04-01T05:27:09;93360.25;;;30.50;20.81
1926;BME280;964;42.606;23.588;2023-04-01T05:29:37;93355.81;;;30.47;21.32
1926;BME280;964;42.606;23.588;2023-04-01T05:32:04;93369.56;;;29.22;21.90
1926;BME280;964;42.606;23.588;2023-04-01T05:34:31;93348.75;;;28.92;22.45
1926;BME280;964;42.606;23.588;2023-04-01T05:36:57;93342.91;;;29.79;21.74
1926;BME280;964;42.606;23.588;2023-04-01T05:39:24;93350.16;;;28.43;23.07
1926;BME280;964;42.606;23.588;2023-04-01T05:41:50;93343.97;;;29.59;22.24
1926;BME280;964;42.606;23.588;2023-04-01T05:44:17;93348.00;;;28.86;22.71
1926;BME280;964;42.606;23.588;2023-04-01T05:46:45;93347.78;;;27.97;23.99
1926;BME280;964;42.606;23.588;2023-04-01T05:49:12;93346.97;;;29.22;22.60
1926;BME280;964;42.606;23.588;2023-04-01T05:51:38;93333.50;;;29.80;22.03
1926;BME280;964;42.606;23.588;2023-04-01T05:54:05;93337.19;;;29.82;22.40
1926;BME280;964;42.606;23.588;2023-04-01T05:56:32;93355.84;;;29.73;22.25
1926;BME280;964;42.606;23.588;2023-04-01T05:58:58;93354.06;;;30.49;21.47
1926;BME280;964;42.606;23.588;2023-04-01T06:01:25;93348.28;;;30.12;22.00
1926;BME280;964;42.606;23.588;2023-04-01T06:03:53;93332.81;;;31.32;21.40
1926;BME280;964;42.606;23.588;2023-04-01T06:06:23;93338.78;;;30.71;21.86
1926;BME280;964;42.606;23.588;2023-04-01T06:08:51;93337.28;;;31.05;21.62
1926;BME280;964;42.606;23.588;2023-04-01T06:11:24;93327.78;;;31.66;21.44
1926;BME280;964;42.606;23.588;2023-04-01T06:14:16;93340.38;;;31.44;21.86
1926;BME280;964;42.606;23.588;2023-04-01T06:16:59;93330.16;;;32.74;21.17
1926;BME280;964;42.606;23.588;2023-04-01T06:19:37;93332.28;;;32.81;21.00
1926;BME280;964;42.606;23.588;2023-04-01T06:25:46;93334.91;;;31.93;22.30
1926;BME280;964;42.606;23.588;2023-04-01T06:28:46;93340.72;;;31.11;22.46
1926;BME280;964;42.606;23.588;2023-04-01T06:31:26;93332.53;;;31.35;22.75
1926;BME280;964;42.606;23.588;2023-04-01T06:34:20;93325.38;;;31.27;22.84
1926;BME280;964;42.606;23.588;2023-04-01T06:37:06;93321.75;;;32.10;22.40
1926;BME280;964;42.606;23.588;2023-04-01T06:39:53;93309.25;;;32.52;21.86
1926;BME280;964;42.606;23.588;2023-04-01T06:42:35;93322.06;;;32.25;21.40
1926;BME280;964;42.606;23.588;2023-04-01T06:45:16;93307.66;;;32.75;21.34
1926;BME280;964;42.606;23.588;2023-04-01T06:48:01;93282.53;;;32.71;20.90
1926;BME280;964;42.606;23.588;2023-04-01T06:50:39;93293.91;;;31.63;21.76
1926;BME280;964;42.606;23.588;2023-04-01T06:53:13;93288.78;;;31.97;21.33
1926;BME280;964;42.606;23.588;2023-04-01T06:55:45;93297.03;;;31.48;21.86
1926;BME280;964;42.606;23.588;2023-04-01T06:58:19;93293.44;;;32.58;20.92
1926;BME280;964;42.606;23.588;2023-04-01T07:00:49;93298.66;;;32.05;21.60
1926;BME280;964;42.606;23.588;2023-04-01T07:03:21;93307.88;;;30.76;22.61
1926;BME280;964;42.606;23.588;2023-04-01T07:05:49;93313.53;;;30.83;22.71
1926;BME280;964;42.606;23.588;2023-04-01T07:08:22;93303.47;;;30.97;22.07
1926;BME280;964;42.606;23.588;2023-04-01T07:10:53;93287.84;;;31.46;21.80
1926;BME280;964;42.606;23.588;2023-04-01T07:13:26;93293.03;;;30.65;22.17
1926;BME280;964;42.606;23.588;2023-04-01T07:15:59;93286.84;;;30.95;21.88
1926;BME280;964;42.606;23.588;2023-04-01T07:18:34;93282.06;;;31.01;21.84
1926;BME280;964;42.606;23.588;2023-04-01T07:21:02;93275.59;;;31.77;21.11
1926;BME280;964;42.606;23.588;2023-04-01T07:23:37;93273.31;;;30.02;21.93
1926;BME280;964;42.606;23.588;2023-04-01T07:26:14;93293.41;;;31.40;21.25
1926;BME280;964;42.606;23.588;2023-04-01T07:28:42;93279.75;;;32.02;20.59
1926;BME280;964;42.606;23.588;2023-04-01T07:31:15;93269.75;;;32.61;19.82
1926;BME280;964;42.606;23.588;2023-04-01T07:33:54;93254.91;;;33.40;19.48
1926;BME280;964;42.606;23.588;2023-04-01T07:36:30;93246.88;;;33.42;18.99
1926;BME280;964;42.606;23.588;2023-04-01T07:39:08;93248.66;;;32.18;20.44
1926;BME280;964;42.606;23.588;2023-04-01T07:41:46;93249.84;;;32.54;20.65
1926;BME280;964;42.606;23.588;2023-04-01T07:44:22;93260.19;;;31.49;21.24
1926;BME280;964;42.606;23.588;2023-04-01T07:47:08;93278.44;;;31.17;21.32
1926;BME280;964;42.606;23.588;2023-04-01T07:49:47;93275.53;;;32.01;21.03
1926;BME280;964;42.606;23.588;2023-04-01T07:52:22;93261.13;;;31.57;21.53
1926;BME280;964;42.606;23.588;2023-04-01T07:54:57;93253.91;;;31.97;20.63
1926;BME280;964;42.606;23.588;2023-04-01T07:57:34;93249.50;;;31.89;21.33
1926;BME280;964;42.606;23.588;2023-04-01T08:00:10;93250.97;;;31.04;21.75
1926;BME280;964;42.606;23.588;2023-04-01T08:02:49;93242.50;;;31.26;21.62
1926;BME280;964;42.606;23.588;2023-04-01T08:05:24;93249.63;;;30.56;21.83
1926;BME280;964;42.606;23.588;2023-04-01T08:07:58;93250.53;;;30.64;21.26
1926;BME280;964;42.606;23.588;2023-04-01T08:10:33;93239.00;;;30.77;21.49
1926;BME280;964;42.606;23.588;2023-04-01T08:13:08;93230.72;;;31.80;20.38
1926;BME280;964;42.606;23.588;2023-04-01T08:15:41;93226.66;;;32.24;20.42
1926;BME280;964;42.606;23.588;2023-04-01T08:18:18;93216.09;;;31.53;20.33
1926;BME280;964;42.606;23.588;2023-04-01T08:20:51;93215.72;;;31.99;19.73
1926;BME280;964;42.606;23.588;2023-04-01T08:23:22;93222.56;;;33.46;18.91
1926;BME280;964;42.606;23.588;2023-04-01T08:25:56;93216.50;;;34.34;18.72
1926;BME280;964;42.606;23.588;2023-04-01T08:28:30;93208.13;;;34.61;18.54
1926;BME280;964;42.606;23.588;2023-04-01T08:31:01;93208.97;;;34.01;17.97
1926;BME280;964;42.606;23.588;2023-04-01T08:33:30;93194.72;;;35.06;17.58
1926;BME280;964;42.606;23.588;2023-04-01T08:36:03;93181.16;;;35.72;17.62
1926;BME280;964;42.606;23.588;2023-04-01T08:38:36;93166.88;;;36.63;17.18
1926;BME280;964;42.606;23.588;2023-04-01T08:41:28;93172.06;;;35.57;17.65
1926;BME280;964;42.606;23.588;2023-04-01T08:44:24;93148.22;;;35.23;17.87
1926;BME280;964;42.606;23.588;2023-04-01T08:47:14;93135.00;;;36.24;17.42
1926;BME280;964;42.606;23.588;2023-04-01T08:49:56;93124.69;;;36.55;17.10
1926;BME280;964;42.606;23.588;2023-04-01T08:52:35;93117.59;;;35.85;17.03
1926;BME280;964;42.606;23.588;2023-04-01T08:55:22;93109.25;;;36.82;16.02
1926;BME280;964;42.606;23.588;2023-04-01T08:58:00;93114.78;;;36.21;16.67
1926;BME280;964;42.606;23.588;2023-04-01T09:00:32;93102.25;;;36.73;16.80
1926;BME280;964;42.606;23.588;2023-04-01T09:06:18;93078.06;;;40.03;15.74
1926;BME280;964;42.606;23.588;2023-04-01T09:09:09;93080.34;;;39.97;13.81
1926;BME280;964;42.606;23.588;2023-04-01T09:11:52;93085.53;;;39.05;15.41
1926;BME280;964;42.606;23.588;2023-04-01T09:15:01;93061.16;;;42.18;13.94
1926;BME280;964;42.606;23.588;2023-04-01T09:18:03;93081.84;;;40.71;13.90
1926;BME280;964;42.606;23.588;2023-04-01T09:20:44;93073.81;;;40.75;13.20
1926;BME280;964;42.606;23.588;2023-04-01T09:23:33;93069.63;;;41.13;13.26
1926;BME280;964;42.606;23.588;2023-04-01T09:29:22;93085.38;;;39.38;13.76
1926;BME280;964;42.606;23.588;2023-04-01T09:32:08;93072.59;;;40.23;13.22
1926;BME280;964;42.606;23.588;2023-04-01T09:34:51;93081.97;;;37.01;14.77
1926;BME280;964;42.606;23.588;2023-04-01T09:37:21;93068.59;;;39.01;14.63
1926;BME280;964;42.606;23.588;2023-04-01T09:40:02;93056.22;;;40.17;14.00
1926;BME280;964;42.606;23.588;2023-04-01T09:42:43;93051.56;;;40.20;14.17
1926;BME280;964;42.606;23.588;2023-04-01T09:45:23;93040.94;;;40.26;13.44
1926;BME280;964;42.606;23.588;2023-04-01T09:48:05;93025.38;;;40.59;13.50
1926;BME280;964;42.606;23.588;2023-04-01T09:50:39;93039.78;;;41.23;12.93
1926;BME280;964;42.606;23.588;2023-04-01T09:53:20;93038.56;;;40.68;13.95
1926;BME280;964;42.606;23.588;2023-04-01T09:56:27;93059.44;;;39.26;16.25
1926;BME280;964;42.606;23.588;2023-04-01T09:59:20;93037.31;;;39.79;16.17
1926;BME280;964;42.606;23.588;2023-04-01T10:02:10;93036.88;;;39.29;16.82
1926;BME280;964;42.606;23.588;2023-04-01T10:05:12;93029.09;;;39.28;16.56
1926;BME280;964;42.606;23.588;2023-04-01T10:08:05;93039.13;;;38.54;17.39
1926;BME280;964;42.606;23.588;2023-04-01T10:10:59;93028.03;;;39.84;16.91
1926;BME280;964;42.606;23.588;2023-04-01T10:14:03;93025.56;;;40.25;15.89
1926;BME280;964;42.606;23.588;2023-04-01T10:17:13;93016.94;;;40.76;16.14
1926;BME280;964;42.606;23.588;2023-04-01T10:29:03;92990.47;;;42.96;14.47
1926;BME280;964;42.606;23.588;2023-04-01T10:32:00;92981.31;;;44.64;13.72
1926;BME280;964;42.606;23.588;2023-04-01T10:37:44;92964.75;;;43.52;14.65
1926;BME280;964;42.606;23.588;2023-04-01T10:40:38;92968.97;;;43.41;14.30
1926;BME280;964;42.606;23.588;2023-04-01T10:43:39;92963.03;;;41.98;14.86
1926;BME280;964;42.606;23.588;2023-04-01T10:46:26;92953.72;;;41.25;15.77
1926;BME280;964;42.606;23.588;2023-04-01T10:49:14;92962.47;;;41.50;15.90
1926;BME280;964;42.606;23.588;2023-04-01T10:55:14;92968.81;;;38.67;16.13
1926;BME280;964;42.606;23.588;2023-04-01T10:58:01;92958.91;;;38.98;17.48
1926;BME280;964;42.606;23.588;2023-04-01T11:00:49;92968.31;;;38.78;16.67
1926;BME280;964;42.606;23.588;2023-04-01T11:03:45;92964.63;;;37.50;17.83
1926;BME280;964;42.606;23.588;2023-04-01T11:06:39;92954.47;;;40.02;15.78
1926;BME280;964;42.606;23.588;2023-04-01T11:12:58;92935.03;;;40.87;15.52
1926;BME280;964;42.606;23.588;2023-04-01T11:15:41;92936.47;;;40.40;15.73
1926;BME280;964;42.606;23.588;2023-04-01T11:18:39;92939.13;;;39.92;15.76
1926;BME280;964;42.606;23.588;2023-04-01T11:24:21;92954.75;;;37.31;17.61
1926;BME280;964;42.606;23.588;2023-04-01T11:27:04;92970.34;;;36.04;19.12
1926;BME280;964;42.606;23.588;2023-04-01T11:29:46;92969.72;;;34.14;20.05
1926;BME280;964;42.606;23.588;2023-04-01T11:32:27;92959.47;;;33.94;20.25
1926;BME280;964;42.606;23.588;2023-04-01T11:35:17;92953.13;;;34.07;20.37
1926;BME280;964;42.606;23.588;2023-04-01T11:37:53;92931.56;;;36.24;18.96
1926;BME280;964;42.606;23.588;2023-04-01T11:40:27;92943.91;;;34.97;19.24
1926;BME280;964;42.606;23.588;2023-04-01T11:43:00;92967.00;;;34.86;20.08
1926;BME280;964;42.606;23.588;2023-04-01T11:45:36;92984.47;;;34.60;19.97
1926;BME280;964;42.606;23.588;2023-04-01T11:48:27;92999.38;;;33.87;20.59
1926;BME280;964;42.606;23.588;2023-04-01T11:51:17;93005.34;;;33.99;20.22
1926;BME280;964;42.606;23.588;2023-04-01T11:53:54;93003.66;;;35.98;18.50
1926;BME280;964;42.606;23.588;2023-04-01T11:56:37;93005.72;;;35.31;19.27
1926;BME280;964;42.606;23.588;2023-04-01T11:59:33;93037.63;;;35.78;18.82
1926;BME280;964;42.606;23.588;2023-04-01T12:02:15;93076.25;;;33.46;20.78
1926;BME280;964;42.606;23.588;2023-04-01T12:04:54;93074.72;;;31.31;23.42
1926;BME280;964;42.606;23.588;2023-04-01T12:07:42;93154.88;;;32.06;24.45
1926;BME280;964;42.606;23.588;2023-04-01T12:10:17;93190.28;;;32.36;24.47
1926;BME280;964;42.606;23.588;2023-04-01T12:12:50;93215.66;;;32.42;26.17
1926;BME280;964;42.606;23.588;2023-04-01T12:15:25;93244.31;;;30.94;28.64
1926;BME280;964;42.606;23.588;2023-04-01T12:18:00;93234.94;;;30.59;28.61
1926;BME280;964;42.606;23.588;2023-04-01T12:20:38;93258.94;;;31.26;28.05
1926;BME280;964;42.606;23.588;2023-04-01T12:23:19;93260.69;;;30.34;29.88
1926;BME280;964;42.606;23.588;2023-04-01T12:26:11;93259.34;;;30.11;30.37
1926;BME280;964;42.606;23.588;2023-04-01T12:28:54;93284.00;;;30.41;30.12
1926;BME280;964;42.606;23.588;2023-04-01T12:31:34;93284.94;;;30.54;29.75
1926;BME280;964;42.606;23.588;2023-04-01T12:37:06;93269.88;;;31.93;28.10
1926;BME280;964;42.606;23.588;2023-04-01T12:39:51;93260.97;;;32.43;27.84
1926;BME280;964;42.606;23.588;2023-04-01T12:42:38;93241.59;;;33.44;27.02
1926;BME280;964;42.606;23.588;2023-04-01T12:45:27;93248.69;;;32.82;27.74
1926;BME280;964;42.606;23.588;2023-04-01T12:48:10;93254.50;;;32.91;27.83
1926;BME280;964;42.606;23.588;2023-04-01T12:51:25;93244.63;;;33.93;26.51
1926;BME280;964;42.606;23.588;2023-04-01T12:54:28;93254.16;;;33.53;27.01
1926;BME280;964;42.606;23.588;2023-04-01T12:57:15;93261.75;;;32.25;28.82
1926;BME280;964;42.606;23.588;2023-04-01T12:59:58;93263.97;;;31.89;28.72
1926;BME280;964;42.606;23.588;2023-04-01T13:02:39;93259.81;;;31.83;28.04
1926;BME280;964;42.606;23.588;2023-04-01T13:05:31;93258.84;;;31.62;28.95
1926;BME280;964;42.606;23.588;2023-04-01T13:08:09;93254.88;;;32.69;27.64
1926;BME280;964;42.606;23.588;2023-04-01T13:11:02;93260.38;;;32.50;27.40
1926;BME280;964;42.606;23.588;2023-04-01T13:13:53;93252.50;;;32.79;27.57
1926;BME280;964;42.606;23.588;2023-04-01T13:16:26;93246.00;;;32.44;27.36
1926;BME280;964;42.606;23.588;2023-04-01T13:18:58;93232.09;;;33.32;26.59
1926;BME280;964;42.606;23.588;2023-04-01T13:21:35;93227.84;;;33.31;26.62
1926;BME280;964;42.606;23.588;2023-04-01T13:24:11;93230.19;;;33.40;26.22
1926;BME280;964;42.606;23.588;2023-04-01T13:26:54;93219.56;;;33.97;25.86
1926;BME280;964;42.606;23.588;2023-04-01T13:29:26;93224.03;;;33.87;26.25
1926;BME280;964;42.606;23.588;2023-04-01T13:32:05;93228.81;;;33.34;26.92
1926;BME280;964;42.606;23.588;2023-04-01T13:34:42;93190.84;;;30.93;30.27
1926;BME280;964;42.606;23.588;2023-04-01T13:37:26;93182.28;;;31.26;29.42
1926;BME280;964;42.606;23.588;2023-04-01T13:40:26;93170.09;;;29.84;31.90
1926;BME280;964;42.606;23.588;2023-04-01T13:42:58;93148.09;;;31.14;30.03
1926;BME280;964;42.606;23.588;2023-04-01T13:45:30;93140.00;;;29.48;32.02
1926;BME280;964;42.606;23.588;2023-04-01T13:51:24;93092.69;;;32.60;29.01
1926;BME280;964;42.606;23.588;2023-04-01T13:57:13;93078.34;;;36.46;25.35
1926;BME280;964;42.606;23.588;2023-04-01T14:05:53;93041.06;;;40.93;20.82
1926;BME280;964;42.606;23.588;2023-04-01T14:11:15;93046.75;;;38.21;22.69
1926;BME280;964;42.606;23.588;2023-04-01T14:13:51;93027.31;;;39.66;23.06
1926;BME280;964;42.606;23.588;2023-04-01T14:16:48;93027.44;;;40.68;21.46
1926;BME280;964;42.606;23.588;2023-04-01T14:19:32;93039.16;;;36.09;24.38
1926;BME280;964;42.606;23.588;2023-04-01T14:22:13;93059.44;;;33.49;27.23
1926;BME280;964;42.606;23.588;2023-04-01T14:24:55;93063.75;;;32.45;28.54
1926;BME280;964;42.606;23.588;2023-04-01T14:27:32;93070.16;;;33.94;26.68
1926;BME280;964;42.606;23.588;2023-04-01T14:33:23;93043.44;;;33.27;27.49
1926;BME280;964;42.606;23.588;2023-04-01T14:36:16;93063.41;;;34.16;25.91
1926;BME280;964;42.606;23.588;2023-04-01T14:38:55;93070.91;;;34.36;25.43
1926;BME280;964;42.606;23.588;2023-04-01T14:41:34;93062.56;;;33.67;26.54
1926;BME280;964;42.606;23.588;2023-04-01T14:50:06;93048.00;;;31.88;29.02
1926;BME280;964;42.606;23.588;2023-04-01T14:52:38;93050.59;;;33.43;27.31
1926;BME280;964;42.606;23.588;2023-04-01T14:55:19;93049.59;;;32.94;27.59
1926;BME280;964;42.606;23.588;2023-04-01T14:57:59;93044.97;;;32.36;27.83
1926;BME280;964;42.606;23.588;2023-04-01T15:00:26;93068.03;;;31.83;27.68
1926;BME280;964;42.606;23.588;2023-04-01T15:02:57;93068.41;;;32.90;26.86
1926;BME280;964;42.606;23.588;2023-04-01T15:05:42;93070.91;;;33.95;25.81
1926;BME280;964;42.606;23.588;2023-04-01T15:08:17;93078.47;;;34.43;25.10
1926;BME280;964;42.606;23.588;2023-04-01T15:11:12;93073.31;;;32.13;26.91
1926;BME280;964;42.606;23.588;2023-04-01T15:13:58;93063.03;;;31.68;27.65
1926;BME280;964;42.606;23.588;2023-04-01T15:16:31;93036.69;;;32.10;26.87